Cap Aiguades — FMII — position and weather

sailwx.info

Track history (hours):
 
Tides and Currents Weather Stations Pressure Air Temp Water Temp Dewpoint Dewpoint Depression Visibility Wind Speed Wind Dir Waves Ship Positions

Cap Aiguades

Last reported at 2017-Sep-22 02:00 UTC. Time now 2017-Sep-22 13:50 UTC.
Position N 43°24' E 004°59'.

Length 89 m; draft 4 m.

Type: Ship. MMSI: 228237800.

Date/timePositionNaut miles runAvg speedWind from/ knotsBaromVisibWave heightAir tempDewpointWater temp
2017-Sep-22 02:00N 43°24' E 004°59'0 0.0
2017-Sep-22 01:31N 43°24' E 004°59'0 0.0
2017-Sep-22 01:00N 43°24' E 004°59'0 0.0
2017-Sep-22 00:30N 43°24' E 004°59'7 2.3
2017-Sep-21 21:34N 43°25' E 004°50'0 0.0
2017-Sep-21 21:19N 43°25' E 004°50'0 0.0
2017-Sep-21 19:59N 43°25' E 004°50'0 0.0
2017-Sep-21 18:44N 43°25' E 004°50'0 0.1
2017-Sep-21 18:19N 43°25' E 004°50'24 9.6
2017-Sep-21 15:53N 43°18' E 005°21'17 0.9
2017-Sep-20 21:52N 43°23' E 004°59'1 2.9
2017-Sep-20 21:30N 43°24' E 004°59'0 0.0
2017-Sep-20 21:00N 43°24' E 004°59'0 0.0
2017-Sep-20 20:30N 43°24' E 004°59'0 0.0
2017-Sep-20 20:00N 43°24' E 004°59'0 0.0
2017-Sep-20 19:30N 43°24' E 004°59'0 0.0
2017-Sep-20 19:00N 43°24' E 004°59'0 0.0
2017-Sep-20 18:30N 43°24' E 004°59'0 0.0
2017-Sep-20 18:00N 43°24' E 004°59'0 0.0
2017-Sep-20 17:30N 43°24' E 004°59'0 0.0
2017-Sep-20 17:00N 43°24' E 004°59'0 0.0
2017-Sep-20 16:30N 43°24' E 004°59'0 0.0
2017-Sep-20 16:00N 43°24' E 004°59'0 0.0
2017-Sep-20 15:30N 43°24' E 004°59'0 0.0
2017-Sep-20 15:00N 43°24' E 004°59'0 0.0
2017-Sep-20 14:00N 43°24' E 004°59'0 0.0
2017-Sep-20 13:30N 43°24' E 004°59'0 0.0
2017-Sep-20 13:00N 43°24' E 004°59'0 0.0
2017-Sep-20 12:30N 43°24' E 004°59'0 0.0
2017-Sep-20 12:00N 43°24' E 004°59'1 1.1
2017-Sep-20 11:30N 43°24' E 004°59'0 0.0
2017-Sep-20 11:01N 43°24' E 004°59'0 0.0
2017-Sep-20 10:30N 43°24' E 004°59'0 0.0
2017-Sep-20 10:00N 43°24' E 004°59'0 0.0
2017-Sep-20 09:30N 43°24' E 004°59'0 0.0
2017-Sep-20 09:00N 43°24' E 004°59'0 0.0
2017-Sep-20 08:31N 43°24' E 004°59'0 0.2
2017-Sep-20 08:01N 43°24' E 004°59'0 0.0
2017-Sep-20 07:30N 43°24' E 004°59'0 0.0
2017-Sep-20 07:01N 43°24' E 004°59'0 0.0
2017-Sep-20 06:30N 43°24' E 004°59'0 0.0
2017-Sep-20 06:00N 43°24' E 004°59'0 0.0
2017-Sep-20 05:30N 43°24' E 004°59'0 0.0
2017-Sep-20 05:01N 43°24' E 004°59'0 0.0
2017-Sep-20 04:31N 43°24' E 004°59'0 0.0
2017-Sep-20 04:01N 43°24' E 004°59'0 0.0
2017-Sep-20 03:31N 43°24' E 004°59'0 0.0
2017-Sep-20 03:00N 43°24' E 004°59'0 0.0
2017-Sep-20 02:30N 43°24' E 004°59'0 0.0
2017-Sep-20 02:00N 43°24' E 004°59'0 0.0
2017-Sep-20 01:30N 43°24' E 004°59'0 0.0
2017-Sep-20 01:01N 43°24' E 004°59'0 0.0
2017-Sep-20 00:30N 43°24' E 004°59'0 0.0
2017-Sep-20 00:00N 43°24' E 004°59'0 0.0
2017-Sep-19 23:30N 43°24' E 004°59'0 0.0
2017-Sep-19 23:00N 43°24' E 004°59'1 1.5
2017-Sep-19 22:30N 43°24' E 004°59'6 1.5
2017-Sep-19 18:41N 43°24' E 004°51'5 9.5
2017-Sep-19 18:07N 43°23' E 004°58'1 7.5
2017-Sep-19 18:00N 43°24' E 004°59'0 0.3
2017-Sep-19 17:30N 43°24' E 004°59'0 0.0
2017-Sep-19 17:00N 43°24' E 004°59'0 0.0
2017-Sep-19 16:30N 43°24' E 004°59'0 0.0
2017-Sep-19 16:00N 43°24' E 004°59'0 0.0
2017-Sep-19 15:30N 43°24' E 004°59'0 0.0
2017-Sep-19 15:00N 43°24' E 004°59'0 0.0
2017-Sep-19 14:31N 43°24' E 004°59'0 0.1
2017-Sep-19 14:00N 43°24' E 004°59'6 8.9
2017-Sep-19 13:18N 43°25' E 004°51'0 0.0
2017-Sep-19 06:25N 43°25' E 004°51'6 2.2
2017-Sep-19 03:51N 43°23' E 004°59'1 2.0
2017-Sep-19 03:31N 43°24' E 004°59'0 0.0
2017-Sep-19 03:01N 43°24' E 004°59'0 0.0
2017-Sep-19 02:30N 43°24' E 004°59'0 0.0
2017-Sep-19 02:00N 43°24' E 004°59'0 0.0
2017-Sep-19 01:30N 43°24' E 004°59'0 0.0
2017-Sep-19 01:01N 43°24' E 004°59'0 0.0
2017-Sep-19 00:30N 43°24' E 004°59'0 0.0
2017-Sep-19 00:00N 43°24' E 004°59'0 0.0
2017-Sep-18 23:31N 43°24' E 004°59'0 0.0
2017-Sep-18 23:00N 43°24' E 004°59'0 0.0
2017-Sep-18 22:30N 43°24' E 004°59'0 0.0
2017-Sep-18 22:00N 43°24' E 004°59'0 0.0
2017-Sep-18 21:30N 43°24' E 004°59'0 0.0
2017-Sep-18 21:00N 43°24' E 004°59'0 0.0
2017-Sep-18 20:30N 43°24' E 004°59'0 0.0
2017-Sep-18 20:01N 43°24' E 004°59'0 1.0
2017-Sep-18 19:30N 43°24' E 004°59'0 0.3
2017-Sep-18 19:01N 43°24' E 004°59'0 0.0
2017-Sep-18 18:30N 43°24' E 004°59'0 0.0
2017-Sep-18 18:00N 43°24' E 004°59'0 0.0
2017-Sep-18 17:30N 43°24' E 004°59'0 0.0
2017-Sep-18 17:01N 43°24' E 004°59'0 0.0
2017-Sep-18 16:30N 43°24' E 004°59'0 0.0
2017-Sep-18 16:00N 43°24' E 004°59'0 0.0
2017-Sep-18 15:31N 43°24' E 004°59'0 0.3
2017-Sep-18 15:00N 43°24' E 004°59'610.4
2017-Sep-18 14:27N 43°24' E 004°52'1 0.4
2017-Sep-18 10:52N 43°25' E 004°50'0 0.0
2017-Sep-18 04:37N 43°25' E 004°50'610.0
2017-Sep-18 04:00N 43°23' E 004°58'1 1.4
2017-Sep-18 03:30N 43°24' E 004°59'0 0.0
2017-Sep-18 03:00N 43°24' E 004°59'0 0.0
2017-Sep-18 02:30N 43°24' E 004°59'0 0.0
2017-Sep-18 02:00N 43°24' E 004°59'0 0.0
2017-Sep-18 01:31N 43°24' E 004°59'0 0.0
2017-Sep-18 01:00N 43°24' E 004°59'0 0.0
2017-Sep-18 00:30N 43°24' E 004°59'0 0.0
2017-Sep-18 00:00N 43°24' E 004°59'0 0.0
2017-Sep-17 23:30N 43°24' E 004°59'0 0.0
2017-Sep-17 23:00N 43°24' E 004°59'0 0.0
2017-Sep-17 22:31N 43°24' E 004°59'0 0.0
2017-Sep-17 22:00N 43°24' E 004°59'0 0.0
2017-Sep-17 21:30N 43°24' E 004°59'0 0.0
2017-Sep-17 21:00N 43°24' E 004°59'0 0.0
2017-Sep-17 20:31N 43°24' E 004°59'0 0.0
2017-Sep-17 20:00N 43°24' E 004°59'0 0.0
2017-Sep-17 19:30N 43°24' E 004°59'0 0.0
2017-Sep-17 19:00N 43°24' E 004°59'0 0.0
2017-Sep-17 18:30N 43°24' E 004°59'0 0.0
2017-Sep-17 18:00N 43°24' E 004°59'0 0.0
2017-Sep-17 17:30N 43°24' E 004°59'0 0.0
2017-Sep-17 17:00N 43°24' E 004°59'0 0.0
2017-Sep-17 16:30N 43°24' E 004°59'0 0.0
2017-Sep-17 16:01N 43°24' E 004°59'1 1.2
2017-Sep-17 15:31N 43°24' E 004°59'0 0.0
2017-Sep-17 15:00N 43°24' E 004°59'0 0.0
2017-Sep-17 14:30N 43°24' E 004°59'0 0.0
2017-Sep-17 14:00N 43°24' E 004°59'0 0.0
2017-Sep-17 13:30N 43°24' E 004°59'0 0.0
2017-Sep-17 13:00N 43°24' E 004°59'0 0.0
2017-Sep-17 12:30N 43°24' E 004°59'0 0.0
2017-Sep-17 12:00N 43°24' E 004°59'0 0.0
2017-Sep-17 11:30N 43°24' E 004°59'0 0.0
2017-Sep-17 11:00N 43°24' E 004°59'0 0.0
2017-Sep-17 10:30N 43°24' E 004°59'0 0.0
2017-Sep-17 10:00N 43°24' E 004°59'0 0.0
2017-Sep-17 09:30N 43°24' E 004°59'0 0.0
2017-Sep-17 09:00N 43°24' E 004°59'0 0.0
2017-Sep-17 08:30N 43°24' E 004°59'0 0.0
2017-Sep-17 08:01N 43°24' E 004°59'0 0.0
2017-Sep-17 07:30N 43°24' E 004°59'0 0.0
2017-Sep-17 07:00N 43°24' E 004°59'0 0.0
2017-Sep-17 06:31N 43°24' E 004°59'0 0.0
2017-Sep-17 06:01N 43°24' E 004°59'0 0.0
2017-Sep-17 05:30N 43°24' E 004°59'0 0.0
2017-Sep-17 05:00N 43°24' E 004°59'0 0.0
2017-Sep-17 04:30N 43°24' E 004°59'0 0.0
2017-Sep-17 04:00N 43°24' E 004°59'0 0.0
2017-Sep-17 03:30N 43°24' E 004°59'0 0.0
2017-Sep-17 03:01N 43°24' E 004°59'0 0.0
2017-Sep-17 02:31N 43°24' E 004°59'0 0.0
2017-Sep-17 02:00N 43°24' E 004°59'0 0.0
2017-Sep-17 01:30N 43°24' E 004°59'0 0.0
2017-Sep-17 01:00N 43°24' E 004°59'0 0.0
2017-Sep-17 00:30N 43°24' E 004°59'0 0.0
2017-Sep-17 00:00N 43°24' E 004°59'0 0.0
2017-Sep-16 23:30N 43°24' E 004°59'0 0.0
2017-Sep-16 23:00N 43°24' E 004°59'0 0.0
2017-Sep-16 22:30N 43°24' E 004°59'0 0.0
2017-Sep-16 22:01N 43°24' E 004°59'0 0.0
2017-Sep-16 21:30N 43°24' E 004°59'0 0.0
2017-Sep-16 21:00N 43°24' E 004°59'0 0.0
2017-Sep-16 20:30N 43°24' E 004°59'0 0.0
2017-Sep-16 20:01N 43°24' E 004°59'0 0.0
2017-Sep-16 19:31N 43°24' E 004°59'0 0.0
2017-Sep-16 19:00N 43°24' E 004°59'0 0.0
2017-Sep-16 18:30N 43°24' E 004°59'0 0.0
2017-Sep-16 18:01N 43°24' E 004°59'0 0.0
2017-Sep-16 17:30N 43°24' E 004°59'0 0.0
2017-Sep-16 17:00N 43°24' E 004°59'0 0.0
2017-Sep-16 16:31N 43°24' E 004°59'0 0.0
2017-Sep-16 16:00N 43°24' E 004°59'0 0.0
2017-Sep-16 15:30N 43°24' E 004°59'0 0.0
2017-Sep-16 15:00N 43°24' E 004°59'0 0.0
2017-Sep-16 14:30N 43°24' E 004°59'0 0.0
2017-Sep-16 14:00N 43°24' E 004°59'0 0.0
2017-Sep-16 13:30N 43°24' E 004°59'0 0.0
2017-Sep-16 13:00N 43°24' E 004°59'0 0.0
2017-Sep-16 12:30N 43°24' E 004°59'0 0.0
2017-Sep-16 12:00N 43°24' E 004°59'0 0.0
2017-Sep-16 11:29N 43°24' E 004°59'6 8.1
2017-Sep-16 10:43N 43°25' E 004°51'0 0.0
2017-Sep-16 00:32N 43°24' E 004°51'510.7
2017-Sep-16 00:04N 43°23' E 004°58'1 9.3
2017-Sep-16 00:00N 43°23' E 004°59'0 0.8
2017-Sep-15 23:30N 43°24' E 004°59'0 0.0
2017-Sep-15 23:00N 43°24' E 004°59'0 0.0
2017-Sep-15 22:30N 43°24' E 004°59'0 0.0
2017-Sep-15 22:01N 43°24' E 004°59'0 0.0
2017-Sep-15 21:30N 43°24' E 004°59'0 0.0
2017-Sep-15 21:00N 43°24' E 004°59'0 0.0
2017-Sep-15 20:30N 43°24' E 004°59'0 0.0
2017-Sep-15 20:00N 43°24' E 004°59'0 0.0
2017-Sep-15 19:30N 43°24' E 004°59'0 0.0
2017-Sep-15 19:00N 43°24' E 004°59'0 0.0
2017-Sep-15 18:30N 43°24' E 004°59'0 0.0
2017-Sep-15 18:00N 43°24' E 004°59'0 0.0
2017-Sep-15 17:30N 43°24' E 004°59'0 0.0
2017-Sep-15 17:00N 43°24' E 004°59'0 0.0
2017-Sep-15 16:30N 43°24' E 004°59'0 0.0
2017-Sep-15 16:00N 43°24' E 004°59'0 0.0
2017-Sep-15 15:30N 43°24' E 004°59'0 0.0
2017-Sep-15 15:00N 43°24' E 004°59'0 0.0
2017-Sep-15 14:30N 43°24' E 004°59'0 0.0
2017-Sep-15 14:00N 43°24' E 004°59'1 1.2
2017-Sep-15 13:30N 43°24' E 004°59'0 0.0
2017-Sep-15 13:00N 43°24' E 004°59'0 0.0
2017-Sep-15 12:30N 43°24' E 004°59'0 0.0
2017-Sep-15 12:01N 43°24' E 004°59'0 0.0
2017-Sep-15 11:30N 43°24' E 004°59'0 0.0
2017-Sep-15 11:00N 43°24' E 004°59'0 0.0
2017-Sep-15 10:30N 43°24' E 004°59'0 0.0
2017-Sep-15 10:01N 43°24' E 004°59'0 0.0
2017-Sep-15 09:30N 43°24' E 004°59'0 0.0
2017-Sep-15 09:00N 43°24' E 004°59'0 0.0
2017-Sep-15 08:31N 43°24' E 004°59'0 0.0
2017-Sep-15 08:00N 43°24' E 004°59'0 0.0
2017-Sep-15 07:30N 43°24' E 004°59'0 0.0
2017-Sep-15 07:01N 43°24' E 004°59'0 0.9
2017-Sep-15 06:31N 43°24' E 004°59'6 1.0
2017-Sep-15 00:49N 43°24' E 004°51'510.9
2017-Sep-15 00:21N 43°23' E 004°58'1 2.7
2017-Sep-15 00:00N 43°24' E 004°59'0 0.0
2017-Sep-14 23:30N 43°24' E 004°59'0 0.0
2017-Sep-14 23:00N 43°24' E 004°59'0 0.0
2017-Sep-14 22:30N 43°24' E 004°59'0 0.0
2017-Sep-14 22:00N 43°24' E 004°59'0 0.0
2017-Sep-14 21:30N 43°24' E 004°59'0 0.0
2017-Sep-14 21:00N 43°24' E 004°59'0 0.0
2017-Sep-14 20:30N 43°24' E 004°59'0 0.0
2017-Sep-14 20:01N 43°24' E 004°59'1 1.1
2017-Sep-14 19:30N 43°24' E 004°59'0 0.0
2017-Sep-14 19:00N 43°24' E 004°59'0 0.0
2017-Sep-14 18:30N 43°24' E 004°59'0 0.0
2017-Sep-14 18:00N 43°24' E 004°59'0 0.7
2017-Sep-14 17:30N 43°24' E 004°59'5 7.6
2017-Sep-14 16:53N 43°19' E 004°60'410.6
2017-Sep-14 16:31N 43°15' E 005°02'39 2.9
2017-Sep-14 02:53N 43°07' E 005°54'1 1.7
2017-Sep-14 02:30N 43°06' E 005°53'0 0.0
2017-Sep-14 02:00N 43°06' E 005°53'0 0.0
2017-Sep-14 01:30N 43°06' E 005°53'0 0.0
2017-Sep-14 01:00N 43°06' E 005°53'0 0.0
2017-Sep-14 00:30N 43°06' E 005°53'0 0.0
2017-Sep-14 00:00N 43°06' E 005°53'0 0.0
2017-Sep-13 23:30N 43°06' E 005°53'0 0.0
2017-Sep-13 23:00N 43°06' E 005°53'0 0.0
2017-Sep-13 22:30N 43°06' E 005°53'0 0.0
2017-Sep-13 22:00N 43°06' E 005°53'0 0.0
2017-Sep-13 21:30N 43°06' E 005°53'0 0.0
2017-Sep-13 21:00N 43°06' E 005°53'0 0.0
2017-Sep-13 20:30N 43°06' E 005°53'0 0.0
2017-Sep-13 20:00N 43°06' E 005°53'0 0.0
2017-Sep-13 19:30N 43°06' E 005°53'0 0.0
2017-Sep-13 19:00N 43°06' E 005°53'0 0.0
2017-Sep-13 18:30N 43°06' E 005°53'0 0.0
2017-Sep-13 18:00N 43°06' E 005°53'0 0.0
2017-Sep-13 17:30N 43°06' E 005°53'43 3.1
2017-Sep-13 03:41N 43°22' E 004°58'211.1
2017-Sep-13 03:30N 43°24' E 004°59'0 0.4
2017-Sep-13 02:58N 43°24' E 004°60'0 0.0
2017-Sep-13 02:28N 43°24' E 004°60'0 0.0
2017-Sep-13 01:58N 43°24' E 004°59'0 0.0
2017-Sep-13 01:28N 43°24' E 004°60'0 0.0
2017-Sep-13 00:55N 43°24' E 004°59'0 0.0
2017-Sep-13 00:28N 43°24' E 004°60'0 0.0
2017-Sep-12 23:58N 43°24' E 004°59'0 0.0
2017-Sep-12 23:28N 43°24' E 004°60'0 0.0
2017-Sep-12 22:58N 43°24' E 004°60'0 0.0
2017-Sep-12 22:28N 43°24' E 004°59'0 0.0
2017-Sep-12 21:58N 43°24' E 004°60'0 0.0
2017-Sep-12 21:28N 43°24' E 004°60'0 0.0
2017-Sep-12 20:58N 43°24' E 004°60'0 0.0
2017-Sep-12 20:28N 43°24' E 004°59'0 0.0
2017-Sep-12 19:58N 43°24' E 004°60'0 0.0
2017-Sep-12 19:28N 43°24' E 004°59'0 0.0
2017-Sep-12 18:58N 43°24' E 004°60'0 0.0
2017-Sep-12 18:30N 43°24' E 004°59'0 0.0
2017-Sep-12 18:00N 43°24' E 004°59'0 0.0
2017-Sep-12 17:30N 43°24' E 004°60'0 0.0
2017-Sep-12 17:00N 43°24' E 004°60'0 0.0
2017-Sep-12 16:30N 43°24' E 004°60'0 0.0
2017-Sep-12 16:00N 43°24' E 004°59'0 0.0
2017-Sep-12 15:30N 43°24' E 004°60'0 0.0
2017-Sep-12 15:00N 43°24' E 004°59'0 0.0
2017-Sep-12 14:30N 43°24' E 004°59'0 0.0
2017-Sep-12 14:00N 43°24' E 004°60'0 0.0
2017-Sep-12 13:30N 43°24' E 004°60'0 0.0
2017-Sep-12 13:00N 43°24' E 004°59'0 0.0
2017-Sep-12 12:30N 43°24' E 004°60'0 1.0
2017-Sep-12 12:00N 43°24' E 004°59'0 0.0
2017-Sep-12 11:30N 43°24' E 004°59'0 0.0
2017-Sep-12 11:00N 43°24' E 004°59'0 0.0
2017-Sep-12 10:30N 43°24' E 004°59'0 0.0
2017-Sep-12 10:00N 43°24' E 004°59'0 0.0
2017-Sep-12 09:30N 43°24' E 004°59'0 0.0
2017-Sep-12 09:00N 43°24' E 004°59'0 0.0
2017-Sep-12 08:30N 43°24' E 004°59'0 0.0
2017-Sep-12 08:00N 43°24' E 004°59'0 0.0
2017-Sep-12 07:30N 43°24' E 004°59'0 0.0
2017-Sep-12 07:00N 43°24' E 004°59'1 2.2
2017-Sep-12 06:31N 43°23' E 004°59'611.0
2017-Sep-12 06:00N 43°25' E 004°51'  
Track history (hours):
 
Tides and Currents Weather Stations Pressure Air Temp Water Temp Dewpoint Dewpoint Depression Visibility Wind Speed Wind Dir Waves Ship Positions

Cap Aiguades

Last reported at 2017-Sep-22 02:00 UTC. Time now 2017-Sep-22 13:50 UTC.
Position N 43°24' E 004°59'.

Length 89 m; draft 4 m.

Type: Ship. MMSI: 228237800.

Date/timePositionNaut miles runAvg speedWind from/ knotsBaromVisibWave heightAir tempDewpointWater temp
2017-Sep-22 02:00N 43°24' E 004°59'0 0.0
2017-Sep-22 01:31N 43°24' E 004°59'0 0.0
2017-Sep-22 01:00N 43°24' E 004°59'0 0.0
2017-Sep-22 00:30N 43°24' E 004°59'7 2.3
2017-Sep-21 21:34N 43°25' E 004°50'0 0.0
2017-Sep-21 21:19N 43°25' E 004°50'0 0.0
2017-Sep-21 19:59N 43°25' E 004°50'0 0.0
2017-Sep-21 18:44N 43°25' E 004°50'0 0.1
2017-Sep-21 18:19N 43°25' E 004°50'24 9.6
2017-Sep-21 15:53N 43°18' E 005°21'17 0.9
2017-Sep-20 21:52N 43°23' E 004°59'1 2.9
2017-Sep-20 21:30N 43°24' E 004°59'0 0.0
2017-Sep-20 21:00N 43°24' E 004°59'0 0.0
2017-Sep-20 20:30N 43°24' E 004°59'0 0.0
2017-Sep-20 20:00N 43°24' E 004°59'0 0.0
2017-Sep-20 19:30N 43°24' E 004°59'0 0.0
2017-Sep-20 19:00N 43°24' E 004°59'0 0.0
2017-Sep-20 18:30N 43°24' E 004°59'0 0.0
2017-Sep-20 18:00N 43°24' E 004°59'0 0.0
2017-Sep-20 17:30N 43°24' E 004°59'0 0.0
2017-Sep-20 17:00N 43°24' E 004°59'0 0.0
2017-Sep-20 16:30N 43°24' E 004°59'0 0.0
2017-Sep-20 16:00N 43°24' E 004°59'0 0.0
2017-Sep-20 15:30N 43°24' E 004°59'0 0.0
2017-Sep-20 15:00N 43°24' E 004°59'0 0.0
2017-Sep-20 14:00N 43°24' E 004°59'0 0.0
2017-Sep-20 13:30N 43°24' E 004°59'0 0.0
2017-Sep-20 13:00N 43°24' E 004°59'0 0.0
2017-Sep-20 12:30N 43°24' E 004°59'0 0.0
2017-Sep-20 12:00N 43°24' E 004°59'1 1.1
2017-Sep-20 11:30N 43°24' E 004°59'0 0.0
2017-Sep-20 11:01N 43°24' E 004°59'0 0.0
2017-Sep-20 10:30N 43°24' E 004°59'0 0.0
2017-Sep-20 10:00N 43°24' E 004°59'0 0.0
2017-Sep-20 09:30N 43°24' E 004°59'0 0.0
2017-Sep-20 09:00N 43°24' E 004°59'0 0.0
2017-Sep-20 08:31N 43°24' E 004°59'0 0.2
2017-Sep-20 08:01N 43°24' E 004°59'0 0.0
2017-Sep-20 07:30N 43°24' E 004°59'0 0.0
2017-Sep-20 07:01N 43°24' E 004°59'0 0.0
2017-Sep-20 06:30N 43°24' E 004°59'0 0.0
2017-Sep-20 06:00N 43°24' E 004°59'0 0.0
2017-Sep-20 05:30N 43°24' E 004°59'0 0.0
2017-Sep-20 05:01N 43°24' E 004°59'0 0.0
2017-Sep-20 04:31N 43°24' E 004°59'0 0.0
2017-Sep-20 04:01N 43°24' E 004°59'0 0.0
2017-Sep-20 03:31N 43°24' E 004°59'0 0.0
2017-Sep-20 03:00N 43°24' E 004°59'0 0.0
2017-Sep-20 02:30N 43°24' E 004°59'0 0.0
2017-Sep-20 02:00N 43°24' E 004°59'0 0.0
2017-Sep-20 01:30N 43°24' E 004°59'0 0.0
2017-Sep-20 01:01N 43°24' E 004°59'0 0.0
2017-Sep-20 00:30N 43°24' E 004°59'0 0.0
2017-Sep-20 00:00N 43°24' E 004°59'0 0.0
2017-Sep-19 23:30N 43°24' E 004°59'0 0.0
2017-Sep-19 23:00N 43°24' E 004°59'1 1.5
2017-Sep-19 22:30N 43°24' E 004°59'6 1.5
2017-Sep-19 18:41N 43°24' E 004°51'5 9.5
2017-Sep-19 18:07N 43°23' E 004°58'1 7.5
2017-Sep-19 18:00N 43°24' E 004°59'0 0.3
2017-Sep-19 17:30N 43°24' E 004°59'0 0.0
2017-Sep-19 17:00N 43°24' E 004°59'0 0.0
2017-Sep-19 16:30N 43°24' E 004°59'0 0.0
2017-Sep-19 16:00N 43°24' E 004°59'0 0.0
2017-Sep-19 15:30N 43°24' E 004°59'0 0.0
2017-Sep-19 15:00N 43°24' E 004°59'0 0.0
2017-Sep-19 14:31N 43°24' E 004°59'0 0.1
2017-Sep-19 14:00N 43°24' E 004°59'6 8.9
2017-Sep-19 13:18N 43°25' E 004°51'0 0.0
2017-Sep-19 06:25N 43°25' E 004°51'6 2.2
2017-Sep-19 03:51N 43°23' E 004°59'1 2.0
2017-Sep-19 03:31N 43°24' E 004°59'0 0.0
2017-Sep-19 03:01N 43°24' E 004°59'0 0.0
2017-Sep-19 02:30N 43°24' E 004°59'0 0.0
2017-Sep-19 02:00N 43°24' E 004°59'0 0.0
2017-Sep-19 01:30N 43°24' E 004°59'0 0.0
2017-Sep-19 01:01N 43°24' E 004°59'0 0.0
2017-Sep-19 00:30N 43°24' E 004°59'0 0.0
2017-Sep-19 00:00N 43°24' E 004°59'0 0.0
2017-Sep-18 23:31N 43°24' E 004°59'0 0.0
2017-Sep-18 23:00N 43°24' E 004°59'0 0.0
2017-Sep-18 22:30N 43°24' E 004°59'0 0.0
2017-Sep-18 22:00N 43°24' E 004°59'0 0.0
2017-Sep-18 21:30N 43°24' E 004°59'0 0.0
2017-Sep-18 21:00N 43°24' E 004°59'0 0.0
2017-Sep-18 20:30N 43°24' E 004°59'0 0.0
2017-Sep-18 20:01N 43°24' E 004°59'0 1.0
2017-Sep-18 19:30N 43°24' E 004°59'0 0.3
2017-Sep-18 19:01N 43°24' E 004°59'0 0.0
2017-Sep-18 18:30N 43°24' E 004°59'0 0.0
2017-Sep-18 18:00N 43°24' E 004°59'0 0.0
2017-Sep-18 17:30N 43°24' E 004°59'0 0.0
2017-Sep-18 17:01N 43°24' E 004°59'0 0.0
2017-Sep-18 16:30N 43°24' E 004°59'0 0.0
2017-Sep-18 16:00N 43°24' E 004°59'0 0.0
2017-Sep-18 15:31N 43°24' E 004°59'0 0.3
2017-Sep-18 15:00N 43°24' E 004°59'610.4
2017-Sep-18 14:27N 43°24' E 004°52'1 0.4
2017-Sep-18 10:52N 43°25' E 004°50'0 0.0
2017-Sep-18 04:37N 43°25' E 004°50'610.0
2017-Sep-18 04:00N 43°23' E 004°58'1 1.4
2017-Sep-18 03:30N 43°24' E 004°59'0 0.0
2017-Sep-18 03:00N 43°24' E 004°59'0 0.0
2017-Sep-18 02:30N 43°24' E 004°59'0 0.0
2017-Sep-18 02:00N 43°24' E 004°59'0 0.0
2017-Sep-18 01:31N 43°24' E 004°59'0 0.0
2017-Sep-18 01:00N 43°24' E 004°59'0 0.0
2017-Sep-18 00:30N 43°24' E 004°59'0 0.0
2017-Sep-18 00:00N 43°24' E 004°59'0 0.0
2017-Sep-17 23:30N 43°24' E 004°59'0 0.0
2017-Sep-17 23:00N 43°24' E 004°59'0 0.0
2017-Sep-17 22:31N 43°24' E 004°59'0 0.0
2017-Sep-17 22:00N 43°24' E 004°59'0 0.0
2017-Sep-17 21:30N 43°24' E 004°59'0 0.0
2017-Sep-17 21:00N 43°24' E 004°59'0 0.0
2017-Sep-17 20:31N 43°24' E 004°59'0 0.0
2017-Sep-17 20:00N 43°24' E 004°59'0 0.0
2017-Sep-17 19:30N 43°24' E 004°59'0 0.0
2017-Sep-17 19:00N 43°24' E 004°59'0 0.0
2017-Sep-17 18:30N 43°24' E 004°59'0 0.0
2017-Sep-17 18:00N 43°24' E 004°59'0 0.0
2017-Sep-17 17:30N 43°24' E 004°59'0 0.0
2017-Sep-17 17:00N 43°24' E 004°59'0 0.0
2017-Sep-17 16:30N 43°24' E 004°59'0 0.0
2017-Sep-17 16:01N 43°24' E 004°59'1 1.2
2017-Sep-17 15:31N 43°24' E 004°59'0 0.0
2017-Sep-17 15:00N 43°24' E 004°59'0 0.0
2017-Sep-17 14:30N 43°24' E 004°59'0 0.0
2017-Sep-17 14:00N 43°24' E 004°59'0 0.0
2017-Sep-17 13:30N 43°24' E 004°59'0 0.0
2017-Sep-17 13:00N 43°24' E 004°59'0 0.0
2017-Sep-17 12:30N 43°24' E 004°59'0 0.0
2017-Sep-17 12:00N 43°24' E 004°59'0 0.0
2017-Sep-17 11:30N 43°24' E 004°59'0 0.0
2017-Sep-17 11:00N 43°24' E 004°59'0 0.0
2017-Sep-17 10:30N 43°24' E 004°59'0 0.0
2017-Sep-17 10:00N 43°24' E 004°59'0 0.0
2017-Sep-17 09:30N 43°24' E 004°59'0 0.0
2017-Sep-17 09:00N 43°24' E 004°59'0 0.0
2017-Sep-17 08:30N 43°24' E 004°59'0 0.0
2017-Sep-17 08:01N 43°24' E 004°59'0 0.0
2017-Sep-17 07:30N 43°24' E 004°59'0 0.0
2017-Sep-17 07:00N 43°24' E 004°59'0 0.0
2017-Sep-17 06:31N 43°24' E 004°59'0 0.0
2017-Sep-17 06:01N 43°24' E 004°59'0 0.0
2017-Sep-17 05:30N 43°24' E 004°59'0 0.0
2017-Sep-17 05:00N 43°24' E 004°59'0 0.0
2017-Sep-17 04:30N 43°24' E 004°59'0 0.0
2017-Sep-17 04:00N 43°24' E 004°59'0 0.0
2017-Sep-17 03:30N 43°24' E 004°59'0 0.0
2017-Sep-17 03:01N 43°24' E 004°59'0 0.0
2017-Sep-17 02:31N 43°24' E 004°59'0 0.0
2017-Sep-17 02:00N 43°24' E 004°59'0 0.0
2017-Sep-17 01:30N 43°24' E 004°59'0 0.0
2017-Sep-17 01:00N 43°24' E 004°59'0 0.0
2017-Sep-17 00:30N 43°24' E 004°59'0 0.0
2017-Sep-17 00:00N 43°24' E 004°59'0 0.0
2017-Sep-16 23:30N 43°24' E 004°59'0 0.0
2017-Sep-16 23:00N 43°24' E 004°59'0 0.0
2017-Sep-16 22:30N 43°24' E 004°59'0 0.0
2017-Sep-16 22:01N 43°24' E 004°59'0 0.0
2017-Sep-16 21:30N 43°24' E 004°59'0 0.0
2017-Sep-16 21:00N 43°24' E 004°59'0 0.0
2017-Sep-16 20:30N 43°24' E 004°59'0 0.0
2017-Sep-16 20:01N 43°24' E 004°59'0 0.0
2017-Sep-16 19:31N 43°24' E 004°59'0 0.0
2017-Sep-16 19:00N 43°24' E 004°59'0 0.0
2017-Sep-16 18:30N 43°24' E 004°59'0 0.0
2017-Sep-16 18:01N 43°24' E 004°59'0 0.0
2017-Sep-16 17:30N 43°24' E 004°59'0 0.0
2017-Sep-16 17:00N 43°24' E 004°59'0 0.0
2017-Sep-16 16:31N 43°24' E 004°59'0 0.0
2017-Sep-16 16:00N 43°24' E 004°59'0 0.0
2017-Sep-16 15:30N 43°24' E 004°59'0 0.0
2017-Sep-16 15:00N 43°24' E 004°59'0 0.0
2017-Sep-16 14:30N 43°24' E 004°59'0 0.0
2017-Sep-16 14:00N 43°24' E 004°59'0 0.0
2017-Sep-16 13:30N 43°24' E 004°59'0 0.0
2017-Sep-16 13:00N 43°24' E 004°59'0 0.0
2017-Sep-16 12:30N 43°24' E 004°59'0 0.0
2017-Sep-16 12:00N 43°24' E 004°59'0 0.0
2017-Sep-16 11:29N 43°24' E 004°59'6 8.1
2017-Sep-16 10:43N 43°25' E 004°51'0 0.0
2017-Sep-16 00:32N 43°24' E 004°51'510.7
2017-Sep-16 00:04N 43°23' E 004°58'1 9.3
2017-Sep-16 00:00N 43°23' E 004°59'0 0.8
2017-Sep-15 23:30N 43°24' E 004°59'0 0.0
2017-Sep-15 23:00N 43°24' E 004°59'0 0.0
2017-Sep-15 22:30N 43°24' E 004°59'0 0.0
2017-Sep-15 22:01N 43°24' E 004°59'0 0.0
2017-Sep-15 21:30N 43°24' E 004°59'0 0.0
2017-Sep-15 21:00N 43°24' E 004°59'0 0.0
2017-Sep-15 20:30N 43°24' E 004°59'0 0.0
2017-Sep-15 20:00N 43°24' E 004°59'0 0.0
2017-Sep-15 19:30N 43°24' E 004°59'0 0.0
2017-Sep-15 19:00N 43°24' E 004°59'0 0.0
2017-Sep-15 18:30N 43°24' E 004°59'0 0.0
2017-Sep-15 18:00N 43°24' E 004°59'0 0.0
2017-Sep-15 17:30N 43°24' E 004°59'0 0.0
2017-Sep-15 17:00N 43°24' E 004°59'0 0.0
2017-Sep-15 16:30N 43°24' E 004°59'0 0.0
2017-Sep-15 16:00N 43°24' E 004°59'0 0.0
2017-Sep-15 15:30N 43°24' E 004°59'0 0.0
2017-Sep-15 15:00N 43°24' E 004°59'0 0.0
2017-Sep-15 14:30N 43°24' E 004°59'0 0.0
2017-Sep-15 14:00N 43°24' E 004°59'1 1.2
2017-Sep-15 13:30N 43°24' E 004°59'0 0.0
2017-Sep-15 13:00N 43°24' E 004°59'0 0.0
2017-Sep-15 12:30N 43°24' E 004°59'0 0.0
2017-Sep-15 12:01N 43°24' E 004°59'0 0.0
2017-Sep-15 11:30N 43°24' E 004°59'0 0.0
2017-Sep-15 11:00N 43°24' E 004°59'0 0.0
2017-Sep-15 10:30N 43°24' E 004°59'0 0.0
2017-Sep-15 10:01N 43°24' E 004°59'0 0.0
2017-Sep-15 09:30N 43°24' E 004°59'0 0.0
2017-Sep-15 09:00N 43°24' E 004°59'0 0.0
2017-Sep-15 08:31N 43°24' E 004°59'0 0.0
2017-Sep-15 08:00N 43°24' E 004°59'0 0.0
2017-Sep-15 07:30N 43°24' E 004°59'0 0.0
2017-Sep-15 07:01N 43°24' E 004°59'0 0.9
2017-Sep-15 06:31N 43°24' E 004°59'6 1.0
2017-Sep-15 00:49N 43°24' E 004°51'510.9
2017-Sep-15 00:21N 43°23' E 004°58'1 2.7
2017-Sep-15 00:00N 43°24' E 004°59'0 0.0
2017-Sep-14 23:30N 43°24' E 004°59'0 0.0
2017-Sep-14 23:00N 43°24' E 004°59'0 0.0
2017-Sep-14 22:30N 43°24' E 004°59'0 0.0
2017-Sep-14 22:00N 43°24' E 004°59'0 0.0
2017-Sep-14 21:30N 43°24' E 004°59'0 0.0
2017-Sep-14 21:00N 43°24' E 004°59'0 0.0
2017-Sep-14 20:30N 43°24' E 004°59'0 0.0
2017-Sep-14 20:01N 43°24' E 004°59'1 1.1
2017-Sep-14 19:30N 43°24' E 004°59'0 0.0
2017-Sep-14 19:00N 43°24' E 004°59'0 0.0
2017-Sep-14 18:30N 43°24' E 004°59'0 0.0
2017-Sep-14 18:00N 43°24' E 004°59'0 0.7
2017-Sep-14 17:30N 43°24' E 004°59'5 7.6
2017-Sep-14 16:53N 43°19' E 004°60'410.6
2017-Sep-14 16:31N 43°15' E 005°02'39 2.9
2017-Sep-14 02:53N 43°07' E 005°54'1 1.7
2017-Sep-14 02:30N 43°06' E 005°53'0 0.0
2017-Sep-14 02:00N 43°06' E 005°53'0 0.0
2017-Sep-14 01:30N 43°06' E 005°53'0 0.0
2017-Sep-14 01:00N 43°06' E 005°53'0 0.0
2017-Sep-14 00:30N 43°06' E 005°53'0 0.0
2017-Sep-14 00:00N 43°06' E 005°53'0 0.0
2017-Sep-13 23:30N 43°06' E 005°53'0 0.0
2017-Sep-13 23:00N 43°06' E 005°53'0 0.0
2017-Sep-13 22:30N 43°06' E 005°53'0 0.0
2017-Sep-13 22:00N 43°06' E 005°53'0 0.0
2017-Sep-13 21:30N 43°06' E 005°53'0 0.0
2017-Sep-13 21:00N 43°06' E 005°53'0 0.0
2017-Sep-13 20:30N 43°06' E 005°53'0 0.0
2017-Sep-13 20:00N 43°06' E 005°53'0 0.0
2017-Sep-13 19:30N 43°06' E 005°53'0 0.0
2017-Sep-13 19:00N 43°06' E 005°53'0 0.0
2017-Sep-13 18:30N 43°06' E 005°53'0 0.0
2017-Sep-13 18:00N 43°06' E 005°53'0 0.0
2017-Sep-13 17:30N 43°06' E 005°53'43 3.1
2017-Sep-13 03:41N 43°22' E 004°58'211.1
2017-Sep-13 03:30N 43°24' E 004°59'0 0.4
2017-Sep-13 02:58N 43°24' E 004°60'0 0.0
2017-Sep-13 02:28N 43°24' E 004°60'0 0.0
2017-Sep-13 01:58N 43°24' E 004°59'0 0.0
2017-Sep-13 01:28N 43°24' E 004°60'0 0.0
2017-Sep-13 00:55N 43°24' E 004°59'0 0.0
2017-Sep-13 00:28N 43°24' E 004°60'0 0.0
2017-Sep-12 23:58N 43°24' E 004°59'0 0.0
2017-Sep-12 23:28N 43°24' E 004°60'0 0.0
2017-Sep-12 22:58N 43°24' E 004°60'0 0.0
2017-Sep-12 22:28N 43°24' E 004°59'0 0.0
2017-Sep-12 21:58N 43°24' E 004°60'0 0.0
2017-Sep-12 21:28N 43°24' E 004°60'0 0.0
2017-Sep-12 20:58N 43°24' E 004°60'0 0.0
2017-Sep-12 20:28N 43°24' E 004°59'0 0.0
2017-Sep-12 19:58N 43°24' E 004°60'0 0.0
2017-Sep-12 19:28N 43°24' E 004°59'0 0.0
2017-Sep-12 18:58N 43°24' E 004°60'0 0.0
2017-Sep-12 18:30N 43°24' E 004°59'0 0.0
2017-Sep-12 18:00N 43°24' E 004°59'0 0.0
2017-Sep-12 17:30N 43°24' E 004°60'0 0.0
2017-Sep-12 17:00N 43°24' E 004°60'0 0.0
2017-Sep-12 16:30N 43°24' E 004°60'0 0.0
2017-Sep-12 16:00N 43°24' E 004°59'0 0.0
2017-Sep-12 15:30N 43°24' E 004°60'0 0.0
2017-Sep-12 15:00N 43°24' E 004°59'0 0.0
2017-Sep-12 14:30N 43°24' E 004°59'0 0.0
2017-Sep-12 14:00N 43°24' E 004°60'0 0.0
2017-Sep-12 13:30N 43°24' E 004°60'0 0.0
2017-Sep-12 13:00N 43°24' E 004°59'0 0.0
2017-Sep-12 12:30N 43°24' E 004°60'0 1.0
2017-Sep-12 12:00N 43°24' E 004°59'0 0.0
2017-Sep-12 11:30N 43°24' E 004°59'0 0.0
2017-Sep-12 11:00N 43°24' E 004°59'0 0.0
2017-Sep-12 10:30N 43°24' E 004°59'0 0.0
2017-Sep-12 10:00N 43°24' E 004°59'0 0.0
2017-Sep-12 09:30N 43°24' E 004°59'0 0.0
2017-Sep-12 09:00N 43°24' E 004°59'0 0.0
2017-Sep-12 08:30N 43°24' E 004°59'0 0.0
2017-Sep-12 08:00N 43°24' E 004°59'0 0.0
2017-Sep-12 07:30N 43°24' E 004°59'0 0.0
2017-Sep-12 07:00N 43°24' E 004°59'1 2.2
2017-Sep-12 06:31N 43°23' E 004°59'611.0
2017-Sep-12 06:00N 43°25' E 004°51'  

Dump ship's entire track history